createdAt,value
2019-01-04T00:00:43.891Z,1.57
2019-01-04T00:03:13.512Z,1.56
2019-01-04T00:05:43.222Z,1.54
2019-01-04T00:08:12.801Z,1.54
2019-01-04T00:10:42.355Z,1.52
2019-01-04T00:13:11.924Z,1.53
2019-01-04T00:15:41.441Z,1.52
2019-01-04T00:18:10.812Z,1.51
2019-01-04T00:20:40.290Z,1.50
2019-01-04T00:23:09.814Z,1.48
2019-01-04T00:25:39.195Z,1.45
2019-01-04T00:28:08.593Z,1.49
2019-01-04T00:30:38.455Z,1.48
2019-01-04T00:33:08.041Z,1.48
2019-01-04T00:35:37.415Z,1.42
2019-01-04T00:38:07.084Z,1.49
2019-01-04T00:40:36.566Z,1.47
2019-01-04T00:43:06.049Z,1.41
2019-01-04T00:45:35.591Z,1.31
2019-01-04T00:48:05.068Z,1.36
2019-01-04T00:50:34.580Z,1.40
2019-01-04T00:53:04.112Z,1.38
2019-01-04T00:56:12.376Z,1.32
2019-01-04T00:59:20.847Z,1.34
2019-01-04T01:02:49.382Z,1.37
2019-01-04T01:06:01.553Z,1.31
2019-01-04T01:09:11.863Z,1.25
2019-01-04T01:12:19.323Z,1.28
2019-01-04T01:15:29.709Z,1.28
2019-01-04T01:18:28.870Z,1.27
2019-01-04T01:21:38.366Z,1.25
2019-01-04T01:24:50.003Z,1.29
2019-01-04T01:27:58.200Z,1.29
2019-01-04T01:31:05.726Z,1.20
2019-01-04T01:34:00.073Z,1.15
2019-01-04T01:37:36.272Z,1.19
2019-01-04T01:40:44.674Z,1.25
2019-01-04T01:43:33.519Z,1.21
2019-01-04T01:46:34.551Z,1.20
2019-01-04T01:49:32.258Z,1.26
2019-01-04T01:52:19.053Z,1.27
2019-01-04T01:54:48.614Z,1.19
2019-01-04T01:57:18.002Z,1.22
2019-01-04T01:59:47.542Z,1.23
2019-01-04T02:02:18.094Z,1.23
2019-01-04T02:04:47.587Z,1.22
2019-01-04T02:07:16.989Z,1.21
2019-01-04T02:09:46.734Z,1.15
2019-01-04T02:12:16.208Z,1.21
2019-01-04T02:14:45.687Z,1.17
2019-01-04T02:17:15.357Z,1.12
2019-01-04T02:19:44.739Z,1.11
2019-01-04T02:22:14.230Z,1.11
2019-01-04T02:24:43.751Z,1.08
2019-01-04T02:27:13.241Z,1.05
2019-01-04T02:29:42.704Z,1.08
2019-01-04T02:32:12.375Z,1.04
2019-01-04T02:34:41.774Z,0.99
2019-01-04T02:37:11.362Z,1.04
2019-01-04T02:39:41.132Z,1.02
2019-01-04T02:42:10.525Z,0.98
2019-01-04T02:44:39.916Z,0.96
2019-01-04T02:47:09.731Z,0.95
2019-01-04T02:49:40.260Z,0.98
2019-01-04T02:52:09.674Z,0.91
2019-01-04T02:54:39.097Z,0.88
2019-01-04T02:57:08.537Z,0.94
2019-01-04T02:59:38.377Z,0.93
2019-01-04T03:02:09.760Z,0.90
2019-01-04T03:04:39.202Z,0.94
2019-01-04T03:07:08.978Z,0.96
2019-01-04T03:09:38.375Z,0.84
2019-01-04T03:12:07.841Z,0.90
2019-01-04T03:14:37.553Z,0.98
2019-01-04T03:17:07.032Z,0.97
2019-01-04T03:19:36.456Z,0.95
2019-01-04T03:22:06.156Z,0.90
2019-01-04T03:24:35.653Z,0.88
2019-01-04T03:27:05.081Z,0.86
2019-01-04T03:29:34.822Z,0.93
2019-01-04T03:32:04.368Z,0.93
2019-01-04T03:34:35.109Z,0.90
2019-01-04T03:37:04.841Z,0.89
2019-01-04T03:39:34.239Z,0.91
2019-01-04T03:42:03.767Z,0.90
2019-01-04T03:44:33.313Z,0.88
2019-01-04T03:47:02.697Z,0.93
2019-01-04T03:49:32.191Z,0.95
2019-01-04T03:52:01.859Z,0.97
2019-01-04T03:54:31.280Z,0.96
2019-01-04T03:57:00.781Z,0.98
2019-01-04T03:59:30.614Z,0.93
2019-01-04T04:02:00.103Z,0.95
2019-01-04T04:04:29.784Z,1.04
2019-01-04T04:06:59.319Z,1.03
2019-01-04T04:09:29.293Z,1.00
2019-01-04T04:11:58.693Z,1.04
2019-01-04T04:14:28.465Z,1.06
2019-01-04T04:16:57.993Z,1.05
2019-01-04T04:19:27.474Z,1.00
2019-01-04T04:21:57.193Z,1.03
2019-01-04T04:24:26.720Z,1.05
2019-01-04T04:26:56.230Z,1.10
2019-01-04T04:29:25.997Z,1.12
2019-01-04T04:31:55.519Z,1.07
2019-01-04T04:34:25.023Z,1.07
2019-01-04T04:36:54.730Z,1.07
2019-01-04T04:39:24.122Z,0.94
2019-01-04T04:41:54.034Z,1.00
2019-01-04T04:44:23.561Z,1.09
2019-01-04T04:46:53.020Z,1.04
2019-01-04T04:49:22.410Z,0.96
2019-01-04T04:51:52.179Z,1.01
2019-01-04T04:54:21.671Z,0.94
2019-01-04T04:56:51.060Z,1.04
2019-01-04T04:59:21.300Z,1.05
2019-01-04T05:01:50.918Z,1.05
2019-01-04T05:04:20.668Z,1.05
2019-01-04T05:06:50.320Z,0.96
2019-01-04T05:09:19.835Z,1.04
2019-01-04T05:11:49.348Z,1.09
2019-01-04T05:14:19.078Z,1.06
2019-01-04T05:16:48.601Z,1.01
2019-01-04T05:19:18.096Z,1.00
2019-01-04T05:21:47.786Z,1.01
2019-01-04T05:24:17.245Z,1.06
2019-01-04T05:26:46.763Z,0.94
2019-01-04T05:29:16.528Z,1.05
2019-01-04T05:31:45.927Z,1.00
2019-01-04T05:34:15.301Z,1.01
2019-01-04T05:36:45.099Z,1.01
2019-01-04T05:39:14.587Z,1.06
2019-01-04T05:41:43.969Z,1.11
2019-01-04T05:44:13.733Z,1.06
2019-01-04T05:46:43.275Z,1.07
2019-01-04T05:49:12.771Z,0.95
2019-01-04T05:51:42.553Z,1.00
2019-01-04T05:54:11.948Z,1.01
2019-01-04T05:56:41.429Z,1.06
2019-01-04T05:59:11.379Z,1.13
2019-01-04T06:01:40.855Z,1.12
2019-01-04T06:04:10.267Z,1.03
2019-01-04T06:06:40.094Z,1.06
2019-01-04T06:09:10.099Z,1.15
2019-01-04T06:11:39.505Z,1.19
2019-01-04T06:14:09.546Z,1.21
2019-01-04T06:16:39.023Z,1.23
2019-01-04T06:19:08.540Z,1.25
2019-01-04T06:21:38.142Z,1.25
2019-01-04T06:24:08.101Z,1.29
2019-01-04T06:26:37.649Z,1.30
2019-01-04T06:29:07.316Z,1.37
2019-01-04T06:31:36.866Z,1.28
2019-01-04T06:34:06.397Z,1.34
2019-01-04T06:36:36.230Z,1.45
2019-01-04T06:39:07.913Z,1.50
2019-01-04T06:41:37.446Z,1.50
2019-01-04T06:44:07.307Z,1.47
2019-01-04T06:46:57.165Z,1.38
2019-01-04T06:49:26.897Z,1.46
2019-01-04T06:51:56.435Z,1.53
2019-01-04T06:55:01.725Z,1.60
2019-01-04T06:57:31.155Z,1.57
2019-01-04T07:00:00.583Z,1.58
2019-01-04T07:02:30.596Z,1.65
2019-01-04T07:05:00.353Z,1.50
2019-01-04T07:07:29.769Z,1.61
2019-01-04T07:09:59.700Z,1.65
2019-01-04T07:12:29.136Z,1.66
2019-01-04T07:14:58.569Z,1.75
2019-01-04T07:17:28.426Z,1.74
2019-01-04T07:19:57.959Z,1.71
2019-01-04T07:22:27.381Z,1.70
2019-01-04T07:24:57.024Z,1.82
2019-01-04T07:27:26.621Z,1.99
2019-01-04T07:29:56.126Z,1.98
2019-01-04T07:32:25.786Z,2.09
2019-01-04T07:34:55.185Z,2.18
2019-01-04T07:37:24.739Z,2.24
2019-01-04T07:39:54.387Z,2.42
2019-01-04T07:42:23.950Z,2.52
2019-01-04T07:44:53.419Z,2.50
2019-01-04T07:47:23.521Z,2.49
2019-01-04T07:49:54.540Z,2.55
2019-01-04T07:52:24.197Z,2.57
2019-01-04T07:55:00.338Z,2.50
2019-01-04T07:57:30.094Z,2.54
2019-01-04T08:00:01.434Z,2.66
2019-01-04T08:02:36.868Z,2.75
2019-01-04T08:05:08.475Z,2.76
2019-01-04T08:07:37.966Z,2.83
2019-01-04T08:10:17.820Z,2.77
2019-01-04T08:12:47.618Z,2.79
2019-01-04T08:15:17.304Z,2.87
2019-01-04T08:17:47.203Z,2.79
2019-01-04T08:20:16.786Z,2.68
2019-01-04T08:22:49.668Z,2.66
2019-01-04T08:25:19.580Z,2.66
2019-01-04T08:27:49.074Z,2.66
2019-01-04T08:30:20.118Z,2.63
2019-01-04T08:32:49.939Z,2.60
2019-01-04T08:35:19.384Z,2.63
2019-01-04T08:37:49.028Z,2.64
2019-01-04T08:40:19.316Z,2.51
2019-01-04T08:42:49.254Z,2.45
2019-01-04T08:45:19.237Z,2.52
2019-01-04T08:47:49.162Z,2.42
2019-01-04T08:50:18.700Z,2.51
2019-01-04T08:52:48.576Z,2.65
2019-01-04T08:55:27.185Z,2.69
2019-01-04T08:57:56.708Z,2.58
2019-01-04T09:00:26.250Z,2.56
2019-01-04T09:02:56.009Z,2.51
2019-01-04T09:05:25.531Z,2.55
2019-01-04T09:07:55.079Z,2.57
2019-01-04T09:10:24.537Z,2.69
2019-01-04T09:12:54.113Z,2.80
2019-01-04T09:15:23.720Z,2.77
2019-01-04T09:17:53.202Z,2.75
2019-01-04T09:20:22.642Z,2.77
2019-01-04T09:22:52.134Z,2.75
2019-01-04T09:25:21.697Z,2.68
2019-01-04T09:27:51.132Z,2.72
2019-01-04T09:30:20.558Z,2.75
2019-01-04T09:32:50.364Z,2.70
2019-01-04T09:35:19.877Z,2.73
2019-01-04T09:37:49.356Z,2.83
2019-01-04T09:40:20.148Z,3.01
2019-01-04T09:42:49.962Z,2.87
2019-01-04T09:45:19.448Z,2.86
2019-01-04T09:47:49.113Z,3.00
2019-01-04T09:50:18.619Z,3.00
2019-01-04T09:52:48.070Z,3.11
2019-01-04T09:55:17.857Z,3.17
2019-01-04T09:57:47.419Z,3.18
2019-01-04T10:00:16.958Z,3.32
2019-01-04T10:02:46.441Z,3.40
2019-01-04T10:05:15.921Z,3.51
2019-01-04T10:07:46.081Z,3.58
2019-01-04T10:10:15.636Z,3.60
2019-01-04T10:12:45.182Z,3.39
2019-01-04T10:15:16.616Z,3.51
2019-01-04T10:17:46.465Z,3.55
2019-01-04T10:20:15.985Z,3.53
2019-01-04T10:22:45.431Z,3.60
2019-01-04T10:25:15.080Z,3.86
2019-01-04T10:27:44.570Z,4.07
2019-01-04T10:30:29.514Z,4.27
2019-01-04T10:32:59.093Z,4.40
2019-01-04T10:35:28.630Z,4.48
2019-01-04T10:37:58.356Z,4.68
2019-01-04T10:40:27.848Z,4.76
2019-01-04T10:42:57.398Z,4.85
2019-01-04T10:45:27.200Z,4.88
2019-01-04T10:47:57.193Z,4.86
2019-01-04T10:50:28.906Z,4.81
2019-01-04T10:52:58.699Z,4.79
2019-01-04T10:55:28.278Z,4.83
2019-01-04T10:57:57.726Z,4.77
2019-01-04T11:00:27.509Z,4.72
2019-01-04T11:02:57.059Z,4.75
2019-01-04T11:05:26.588Z,4.52
2019-01-04T11:07:56.287Z,3.76
2019-01-04T11:10:25.730Z,3.48
2019-01-04T11:12:56.661Z,3.36
2019-01-04T11:15:26.631Z,3.71
2019-01-04T11:17:56.114Z,3.91
2019-01-04T11:20:51.142Z,4.20
2019-01-04T11:24:05.822Z,3.93
2019-01-04T11:27:08.274Z,3.51
2019-01-04T11:30:10.070Z,3.58
2019-01-04T11:33:12.276Z,4.11
2019-01-04T11:36:27.738Z,4.42
2019-01-04T11:39:42.169Z,4.16
2019-01-04T11:42:31.745Z,3.66
2019-01-04T11:45:24.273Z,3.40
2019-01-04T11:48:30.408Z,3.92
2019-01-04T11:51:56.234Z,3.85
2019-01-04T11:54:28.553Z,3.34
2019-01-04T11:56:58.085Z,3.19
2019-01-04T11:59:27.770Z,2.99
2019-01-04T12:01:57.302Z,2.64
2019-01-04T12:04:26.828Z,2.89
2019-01-04T12:06:56.752Z,2.93
2019-01-04T12:09:26.195Z,3.02
2019-01-04T12:11:55.621Z,3.08
2019-01-04T12:14:26.672Z,3.21
2019-01-04T12:16:56.244Z,3.37
2019-01-04T12:19:25.676Z,3.41
2019-01-04T12:21:55.180Z,3.25
2019-01-04T12:24:24.724Z,3.13
2019-01-04T12:26:54.270Z,2.93
2019-01-04T12:29:23.757Z,2.83
2019-01-04T12:31:53.133Z,2.56
2019-01-04T12:34:22.667Z,2.86
2019-01-04T12:36:52.355Z,3.02
2019-01-04T12:39:21.883Z,3.08
2019-01-04T12:41:51.460Z,3.23
2019-01-04T12:44:20.949Z,3.32
2019-01-04T12:46:50.385Z,3.26
2019-01-04T12:49:19.915Z,3.34
2019-01-04T12:51:49.478Z,3.63
2019-01-04T12:54:18.900Z,3.76
2019-01-04T12:56:48.377Z,3.87
2019-01-04T12:59:17.956Z,3.77
2019-01-04T13:01:47.507Z,3.21
2019-01-04T13:04:16.920Z,3.17
2019-01-04T13:06:46.410Z,3.27
2019-01-04T13:09:15.948Z,3.30
2019-01-04T13:11:45.498Z,3.07
2019-01-04T13:14:15.036Z,2.92
2019-01-04T13:16:45.739Z,2.96
2019-01-04T13:19:15.218Z,3.24
2019-01-04T13:21:44.988Z,3.13
2019-01-04T13:24:14.510Z,3.25
2019-01-04T13:26:44.037Z,3.33
2019-01-04T13:29:13.614Z,3.25
2019-01-04T13:31:43.062Z,3.18
2019-01-04T13:34:12.550Z,3.02
2019-01-04T13:36:42.329Z,2.88
2019-01-04T13:39:14.256Z,2.91
2019-01-04T13:41:43.645Z,3.19
2019-01-04T13:44:13.195Z,3.34
2019-01-04T13:46:42.716Z,3.05
2019-01-04T13:49:12.200Z,3.17
2019-01-04T13:51:41.879Z,3.24
2019-01-04T13:54:11.523Z,3.38
2019-01-04T13:56:41.324Z,3.49
2019-01-04T13:59:11.191Z,3.56
2019-01-04T14:01:40.722Z,3.38
2019-01-04T14:04:10.168Z,3.33
2019-01-04T14:06:40.199Z,3.32
2019-01-04T14:09:09.974Z,3.22
2019-01-04T14:11:39.516Z,3.04
2019-01-04T14:14:09.253Z,3.03
2019-01-04T14:16:38.684Z,3.14
2019-01-04T14:19:08.568Z,3.18
2019-01-04T14:21:38.567Z,3.10
2019-01-04T14:24:07.948Z,3.17
2019-01-04T14:26:37.387Z,3.21
2019-01-04T14:29:07.055Z,3.14
2019-01-04T14:31:36.559Z,3.17
2019-01-04T14:34:06.029Z,3.03
2019-01-04T14:36:35.948Z,2.89
2019-01-04T14:39:07.728Z,2.70
2019-01-04T14:41:37.216Z,2.63
2019-01-04T14:44:06.755Z,2.74
2019-01-04T14:46:36.546Z,2.80
2019-01-04T14:49:06.016Z,2.89
2019-01-04T14:51:37.291Z,2.90
2019-01-04T14:54:06.806Z,2.92
2019-01-04T14:56:36.563Z,2.85
2019-01-04T14:59:06.407Z,2.72
2019-01-04T15:01:35.894Z,2.66
2019-01-04T15:04:05.544Z,2.66
2019-01-04T15:06:35.098Z,2.63
2019-01-04T15:09:05.521Z,2.61
2019-01-04T15:11:36.370Z,2.54
2019-01-04T15:14:05.919Z,2.55
2019-01-04T15:16:35.302Z,2.42
2019-01-04T15:19:04.825Z,2.42
2019-01-04T15:21:34.666Z,2.50
2019-01-04T15:24:04.135Z,2.52
2019-01-04T15:26:33.632Z,2.54
2019-01-04T15:29:03.476Z,2.50
2019-01-04T15:31:33.160Z,2.46
2019-01-04T15:34:02.633Z,2.46
2019-01-04T15:36:32.411Z,2.41
2019-01-04T15:39:01.927Z,2.43
2019-01-04T15:41:31.586Z,2.35
2019-01-04T15:44:01.397Z,2.20
2019-01-04T15:46:30.843Z,2.17
2019-01-04T15:49:00.482Z,2.21
2019-01-04T15:51:30.347Z,2.12
2019-01-04T15:53:59.840Z,2.21
2019-01-04T15:56:29.376Z,2.14
2019-01-04T15:58:59.230Z,2.06
2019-01-04T16:01:28.742Z,1.91
2019-01-04T16:03:58.270Z,1.92
2019-01-04T16:06:27.999Z,1.84
2019-01-04T16:08:57.894Z,1.75
2019-01-04T16:11:27.412Z,1.74
2019-01-04T16:13:57.340Z,1.70
2019-01-04T16:16:27.436Z,1.64
2019-01-04T16:18:56.864Z,1.60
2019-01-04T16:21:26.571Z,1.57
2019-01-04T16:23:56.244Z,1.54
2019-01-04T16:26:25.744Z,1.52
2019-01-04T16:28:55.448Z,1.42
2019-01-04T16:31:24.982Z,1.45
2019-01-04T16:33:54.585Z,1.53
2019-01-04T16:36:26.442Z,1.50
2019-01-04T16:38:55.956Z,1.53
2019-01-04T16:41:25.380Z,1.50
2019-01-04T16:43:55.272Z,1.45
2019-01-04T16:46:25.128Z,1.32
2019-01-04T16:48:55.280Z,1.37
2019-01-04T16:51:24.952Z,1.33
2019-01-04T16:53:54.475Z,1.42
2019-01-04T16:56:24.007Z,1.37
2019-01-04T16:58:53.689Z,1.38
2019-01-04T17:01:23.119Z,1.38
2019-01-04T17:03:52.799Z,1.28
2019-01-04T17:06:22.632Z,1.32
2019-01-04T17:08:52.067Z,1.38
2019-01-04T17:11:22.430Z,1.36
2019-01-04T17:13:52.282Z,1.32
2019-01-04T17:16:21.768Z,1.41
2019-01-04T17:18:51.309Z,1.52
2019-01-04T17:21:20.902Z,1.64
2019-01-04T17:23:50.299Z,1.61
2019-01-04T17:26:19.758Z,1.67
2019-01-04T17:28:49.537Z,1.66
2019-01-04T17:31:19.095Z,1.52
2019-01-04T17:33:48.826Z,1.45
2019-01-04T17:36:18.464Z,1.45
2019-01-04T17:38:48.386Z,1.50
2019-01-04T17:41:17.976Z,1.49
2019-01-04T17:43:47.629Z,1.41
2019-01-04T17:46:17.087Z,1.37
2019-01-04T17:48:48.909Z,1.34
2019-01-04T17:51:18.878Z,1.23
2019-01-04T17:53:48.334Z,1.28
2019-01-04T17:56:17.912Z,1.35
2019-01-04T17:58:47.814Z,1.35
2019-01-04T18:01:17.259Z,1.39
2019-01-04T18:03:46.809Z,1.42
2019-01-04T18:06:16.574Z,1.35
2019-01-04T18:08:45.999Z,1.37
2019-01-04T18:11:15.651Z,1.41
2019-01-04T18:13:46.657Z,1.37
2019-01-04T18:16:16.349Z,1.35
2019-01-04T18:18:45.785Z,1.30
2019-01-04T18:21:15.454Z,1.32
2019-01-04T18:23:45.007Z,1.21
2019-01-04T18:26:14.590Z,1.26
2019-01-04T18:28:44.373Z,1.36
2019-01-04T18:31:13.786Z,1.36
2019-01-04T18:33:43.314Z,1.31
2019-01-04T18:36:13.126Z,1.33
2019-01-04T18:38:42.647Z,1.32
2019-01-04T18:41:12.168Z,1.34
2019-01-04T18:43:41.666Z,1.29
2019-01-04T18:46:11.120Z,1.13
2019-01-04T18:48:40.658Z,1.06
2019-01-04T18:51:10.291Z,1.14
2019-01-04T18:53:39.725Z,1.20
2019-01-04T18:56:09.195Z,1.10
2019-01-04T18:58:38.983Z,1.19
2019-01-04T19:01:13.691Z,1.16
2019-01-04T19:03:39.712Z,1.01
2019-01-04T19:06:09.330Z,0.94
2019-01-04T19:08:38.868Z,1.05
2019-01-04T19:11:08.913Z,1.03
2019-01-04T19:13:38.947Z,0.95
2019-01-04T19:16:08.886Z,0.97
2019-01-04T19:18:38.421Z,1.02
2019-01-04T19:21:08.250Z,1.00
2019-01-04T19:23:39.633Z,0.96
2019-01-04T19:26:08.981Z,1.09
2019-01-04T19:28:39.001Z,1.09
2019-01-04T19:31:08.670Z,1.01
2019-01-04T19:33:38.111Z,0.90
2019-01-04T19:36:07.633Z,0.88
2019-01-04T19:38:37.170Z,0.87
2019-01-04T19:41:06.717Z,0.86
2019-01-04T19:43:36.400Z,0.78
2019-01-04T19:46:05.860Z,0.76
2019-01-04T19:48:35.366Z,0.81
2019-01-04T19:51:05.099Z,0.92
2019-01-04T19:53:34.525Z,0.85
2019-01-04T19:56:04.071Z,0.79
2019-01-04T19:58:33.573Z,0.87
2019-01-04T20:01:03.025Z,0.98
2019-01-04T20:03:32.541Z,0.86
2019-01-04T20:07:17.372Z,0.93
2019-01-04T20:10:39.602Z,1.09
2019-01-04T20:14:31.648Z,1.07
2019-01-04T20:17:18.855Z,1.10
2019-01-04T20:20:08.803Z,1.10
2019-01-04T20:23:03.043Z,1.08
2019-01-04T20:25:50.133Z,1.06
2019-01-04T20:28:38.563Z,1.01
2019-01-04T20:31:44.896Z,0.98
2019-01-04T20:34:31.404Z,0.99
2019-01-04T20:37:22.325Z,0.98
2019-01-04T20:40:29.010Z,0.93
2019-01-04T20:43:26.456Z,0.90
2019-01-04T20:46:13.322Z,0.90
2019-01-04T20:49:13.289Z,0.82
2019-01-04T20:52:07.789Z,0.63
2019-01-04T20:54:59.051Z,0.75
2019-01-04T20:57:46.310Z,0.78
2019-01-04T21:00:37.533Z,0.73
2019-01-04T21:03:28.455Z,0.50
2019-01-04T21:06:19.722Z,0.36
2019-01-04T21:09:06.196Z,0.31
2019-01-04T21:11:57.930Z,0.44
2019-01-04T21:14:46.627Z,0.40
2019-01-04T21:17:34.978Z,0.24
2019-01-04T21:20:22.633Z,0.22
2019-01-04T21:23:09.965Z,0.08
2019-01-04T21:26:07.203Z,-0.04
2019-01-04T21:29:01.475Z,-0.14
2019-01-04T21:31:49.814Z,-0.17
2019-01-04T21:34:40.106Z,-0.12
2019-01-04T21:37:26.999Z,-0.12
2019-01-04T21:40:16.359Z,-0.29
2019-01-04T21:43:03.192Z,-0.32
2019-01-04T21:45:50.139Z,-0.37
2019-01-04T21:48:36.627Z,-0.34
2019-01-04T21:51:36.998Z,-0.29
2019-01-04T21:54:23.874Z,-0.03
2019-01-04T21:57:12.381Z,0.01
2019-01-04T22:00:09.740Z,0.09
2019-01-04T22:02:56.676Z,0.13
2019-01-04T22:05:43.850Z,0.18
2019-01-04T22:08:32.448Z,0.10
2019-01-04T22:11:39.291Z,-0.09
2019-01-04T22:14:33.971Z,-0.10
2019-01-04T22:17:22.814Z,-0.17
2019-01-04T22:20:09.951Z,-0.19
2019-01-04T22:22:56.739Z,-0.21
2019-01-04T22:26:00.276Z,-0.35
2019-01-04T22:28:54.504Z,-0.38
2019-01-04T22:31:43.028Z,-0.39
2019-01-04T22:34:33.965Z,-0.45
2019-01-04T22:37:22.651Z,-0.46
2019-01-04T22:40:10.991Z,-0.52
2019-01-04T22:42:58.133Z,-0.68
2019-01-04T22:45:52.394Z,-1.01
2019-01-04T22:48:39.838Z,-0.93
2019-01-04T22:51:26.627Z,-1.00
2019-01-04T22:54:23.992Z,-0.87
2019-01-04T22:57:18.302Z,-0.79
2019-01-04T23:00:21.472Z,-0.75
2019-01-04T23:03:08.314Z,-0.64
2019-01-04T23:06:01.061Z,-0.60
2019-01-04T23:08:47.859Z,-0.63
2019-01-04T23:11:51.864Z,-0.54
2019-01-04T23:14:39.200Z,-0.62
2019-01-04T23:17:33.577Z,-0.58
2019-01-04T23:20:22.431Z,-0.48
2019-01-04T23:23:09.432Z,-0.54
2019-01-04T23:25:56.521Z,-0.64
2019-01-04T23:29:02.886Z,-0.66
2019-01-04T23:31:49.952Z,-0.76
2019-01-04T23:34:36.890Z,-0.82
2019-01-04T23:37:25.345Z,-0.83
2019-01-04T23:40:18.700Z,-0.75
2019-01-04T23:43:05.512Z,-0.84
2019-01-04T23:45:56.847Z,-0.72
2019-01-04T23:48:47.884Z,-0.71
2019-01-04T23:51:36.584Z,-0.72
2019-01-04T23:54:23.502Z,-0.75
2019-01-04T23:57:14.648Z,-0.89
